createdAt,value
2018-08-28T00:00:14.895Z,15.8
2018-08-28T00:01:24.734Z,15.78
2018-08-28T00:02:34.305Z,15.78
2018-08-28T00:03:43.875Z,15.82
2018-08-28T00:04:53.443Z,15.83
2018-08-28T00:06:03.288Z,15.78
2018-08-28T00:07:13.401Z,15.83
2018-08-28T00:08:23.241Z,15.72
2018-08-28T00:09:32.813Z,15.83
2018-08-28T00:10:42.387Z,15.74
2018-08-28T00:11:52.550Z,15.74
2018-08-28T00:13:01.852Z,15.8
2018-08-28T00:14:11.158Z,15.74
2018-08-28T00:15:21.007Z,15.69
2018-08-28T00:16:31.119Z,15.83
2018-08-28T00:17:40.427Z,15.86
2018-08-28T00:18:50.269Z,15.76
2018-08-28T00:19:59.845Z,15.8
2018-08-28T00:21:09.701Z,15.76
2018-08-28T00:22:19.544Z,15.74
2018-08-28T00:23:29.670Z,15.78
2018-08-28T00:24:39.253Z,15.78
2018-08-28T00:25:49.366Z,15.72
2018-08-28T00:26:59.218Z,15.69
2018-08-28T00:28:08.795Z,15.84
2018-08-28T00:29:18.095Z,15.75
2018-08-28T00:30:27.936Z,15.74
2018-08-28T00:31:37.247Z,15.69
2018-08-28T00:32:47.370Z,15.8
2018-08-28T00:33:57.216Z,15.69
2018-08-28T00:35:06.250Z,15.62
2018-08-28T00:36:16.093Z,15.69
2018-08-28T00:37:26.209Z,15.64
2018-08-28T00:38:36.322Z,15.64
2018-08-28T00:39:46.163Z,15.62
2018-08-28T00:40:56.005Z,15.72
2018-08-28T00:42:06.139Z,15.6
2018-08-28T00:43:15.445Z,15.62
2018-08-28T00:44:25.010Z,15.75
2018-08-28T00:45:34.579Z,15.62
2018-08-28T00:46:44.421Z,15.76
2018-08-28T00:47:54.539Z,15.64
2018-08-28T00:49:03.568Z,15.67
2018-08-28T00:50:13.677Z,15.82
2018-08-28T00:51:23.790Z,15.68
2018-08-28T00:52:33.892Z,15.74
2018-08-28T00:53:43.193Z,15.76
2018-08-28T00:54:52.763Z,15.65
2018-08-28T00:56:02.340Z,15.69
2018-08-28T00:57:12.188Z,15.75
2018-08-28T00:58:22.299Z,15.69
2018-08-28T00:59:32.419Z,15.69
2018-08-28T01:00:41.732Z,15.72
2018-08-28T01:01:51.305Z,15.75
2018-08-28T01:03:01.155Z,15.69
2018-08-28T01:04:11.002Z,15.75
2018-08-28T01:05:20.578Z,15.68
2018-08-28T01:06:30.692Z,15.65
2018-08-28T01:07:40.263Z,15.83
2018-08-28T01:08:50.100Z,15.75
2018-08-28T01:09:59.408Z,15.72
2018-08-28T01:11:08.985Z,15.76
2018-08-28T01:12:18.830Z,15.78
2018-08-28T01:13:28.945Z,15.76
2018-08-28T01:14:39.138Z,15.76
2018-08-28T01:15:48.556Z,15.86
2018-08-28T01:16:58.396Z,15.76
2018-08-28T01:18:08.510Z,15.8
2018-08-28T01:19:18.349Z,15.83
2018-08-28T01:20:28.197Z,15.86
2018-08-28T01:21:38.037Z,15.8
2018-08-28T01:22:48.147Z,15.76
2018-08-28T01:23:57.991Z,15.76
2018-08-28T01:25:07.842Z,15.82
2018-08-28T01:26:17.697Z,15.76
2018-08-28T01:27:27.271Z,15.76
2018-08-28T01:28:37.120Z,15.82
2018-08-28T01:29:46.418Z,15.82
2018-08-28T01:30:55.451Z,15.84
2018-08-28T01:32:05.027Z,15.87
2018-08-28T01:33:14.869Z,15.83
2018-08-28T01:34:24.441Z,15.82
2018-08-28T01:35:34.281Z,15.86
2018-08-28T01:36:43.315Z,15.83
2018-08-28T01:37:53.438Z,15.78
2018-08-28T01:39:03.544Z,15.78
2018-08-28T01:40:13.651Z,15.68
2018-08-28T01:41:23.770Z,15.74
2018-08-28T01:42:33.341Z,15.67
2018-08-28T01:43:43.180Z,15.74
2018-08-28T01:44:53.306Z,15.65
2018-08-28T01:46:03.148Z,15.57
2018-08-28T01:47:12.719Z,15.56
2018-08-28T01:48:22.571Z,15.56
2018-08-28T01:49:32.414Z,15.57
2018-08-28T01:50:41.995Z,15.49
2018-08-28T01:51:51.836Z,15.49
2018-08-28T01:53:01.730Z,15.46
2018-08-28T01:54:11.308Z,15.36
2018-08-28T01:55:20.887Z,15.38
2018-08-28T01:56:30.461Z,15.49
2018-08-28T01:57:40.033Z,15.43
2018-08-28T01:58:49.878Z,15.41
2018-08-28T01:59:59.720Z,15.34
2018-08-28T02:01:09.288Z,15.23
2018-08-28T02:02:19.398Z,15.36
2018-08-28T02:03:28.969Z,15.21
2018-08-28T02:04:38.809Z,15.28
2018-08-28T02:05:48.388Z,15.32
2018-08-28T02:06:58.503Z,15.27
2018-08-28T02:08:08.396Z,15.27
2018-08-28T02:09:18.241Z,15.31
2018-08-28T02:10:27.813Z,15.2
2018-08-28T02:11:37.673Z,15.14
2018-08-28T02:12:46.979Z,15.17
2018-08-28T02:13:56.550Z,15.06
2018-08-28T02:15:06.129Z,15.1
2018-08-28T02:16:16.243Z,15.11
2018-08-28T02:17:26.086Z,14.99
2018-08-28T02:18:35.932Z,15.03
2018-08-28T02:19:46.049Z,14.95
2018-08-28T02:20:55.081Z,14.91
2018-08-28T02:22:04.922Z,14.94
2018-08-28T02:23:14.512Z,14.83
2018-08-28T02:24:24.083Z,14.91
2018-08-28T02:25:33.655Z,14.89
2018-08-28T02:26:43.493Z,14.81
2018-08-28T02:27:53.067Z,14.81
2018-08-28T02:29:03.190Z,14.73
2018-08-28T02:30:13.309Z,14.77
2018-08-28T02:31:26.141Z,14.62
2018-08-28T02:32:36.262Z,14.7
2018-08-28T02:33:46.812Z,14.69
2018-08-28T02:34:56.062Z,14.64
2018-08-28T02:36:05.367Z,14.64
2018-08-28T02:37:15.219Z,14.57
2018-08-28T02:38:25.340Z,14.57
2018-08-28T02:39:34.645Z,14.58
2018-08-28T02:40:44.777Z,14.5
2018-08-28T02:41:54.075Z,14.5
2018-08-28T02:43:03.643Z,14.46
2018-08-28T02:44:13.483Z,14.5
2018-08-28T02:45:23.328Z,14.45
2018-08-28T02:46:33.175Z,14.37
2018-08-28T02:47:43.009Z,14.33
2018-08-28T02:48:52.851Z,14.28
2018-08-28T02:50:02.162Z,14.32
2018-08-28T02:51:11.464Z,14.24
2018-08-28T02:52:21.037Z,14.27
2018-08-28T02:53:31.145Z,14.21
2018-08-28T02:54:40.728Z,14.21
2018-08-28T02:55:50.568Z,14.18
2018-08-28T02:57:00.416Z,14.18
2018-08-28T02:58:09.985Z,14.14
2018-08-28T02:59:19.821Z,14.04
2018-08-28T03:00:29.399Z,14.1
2018-08-28T03:01:39.520Z,14.12
2018-08-28T03:02:49.475Z,14.09
2018-08-28T03:03:59.741Z,14.04
2018-08-28T03:05:09.868Z,14.12
2018-08-28T03:06:19.447Z,14.09
2018-08-28T03:07:29.302Z,14.09
2018-08-28T03:08:39.168Z,14.07
2018-08-28T03:09:49.283Z,14.03
2018-08-28T03:10:59.409Z,14.04
2018-08-28T03:12:09.258Z,14.02
2018-08-28T03:13:18.831Z,13.92
2018-08-28T03:14:28.941Z,13.92
2018-08-28T03:15:39.319Z,14.02
2018-08-28T03:16:49.095Z,14.04
2018-08-28T03:17:58.942Z,14
2018-08-28T03:19:09.056Z,14.03
2018-08-28T03:20:18.898Z,14.04
2018-08-28T03:21:28.745Z,13.92
2018-08-28T03:22:38.317Z,13.95
2018-08-28T03:23:47.892Z,13.95
2018-08-28T03:24:57.726Z,13.92
2018-08-28T03:26:06.761Z,13.88
2018-08-28T03:27:16.885Z,13.88
2018-08-28T03:28:26.191Z,13.91
2018-08-28T03:29:36.309Z,13.99
2018-08-28T03:30:46.423Z,13.92
2018-08-28T03:31:56.011Z,13.92
2018-08-28T03:33:05.875Z,13.88
2018-08-28T03:34:15.726Z,13.92
2018-08-28T03:35:25.297Z,13.95
2018-08-28T03:36:35.410Z,13.91
2018-08-28T03:37:45.259Z,13.91
2018-08-28T03:38:55.379Z,13.95
2018-08-28T03:40:05.223Z,13.92
2018-08-28T03:41:15.410Z,13.89
2018-08-28T03:42:25.603Z,13.96
2018-08-28T03:43:35.485Z,13.91
2018-08-28T03:44:44.565Z,13.89
2018-08-28T03:45:55.134Z,14.02
2018-08-28T03:47:04.980Z,13.92
2018-08-28T03:48:15.091Z,13.88
2018-08-28T03:49:24.933Z,13.95
2018-08-28T03:50:34.778Z,14.04
2018-08-28T03:51:44.346Z,13.89
2018-08-28T03:52:53.914Z,13.88
2018-08-28T03:54:03.483Z,13.87
2018-08-28T03:55:13.144Z,13.92
2018-08-28T03:56:22.745Z,13.89
2018-08-28T03:57:32.042Z,13.89
2018-08-28T03:58:41.340Z,13.81
2018-08-28T03:59:51.192Z,13.88
2018-08-28T04:01:01.031Z,13.88
2018-08-28T04:02:11.148Z,13.87
2018-08-28T04:03:21.263Z,13.79
2018-08-28T04:04:31.380Z,13.92
2018-08-28T04:05:41.231Z,13.79
2018-08-28T04:06:50.801Z,13.81
2018-08-28T04:08:00.914Z,13.87
2018-08-28T04:09:10.757Z,13.82
2018-08-28T04:10:20.064Z,13.78
2018-08-28T04:11:29.901Z,13.84
2018-08-28T04:12:39.744Z,13.81
2018-08-28T04:13:49.594Z,13.73
2018-08-28T04:14:58.901Z,13.78
2018-08-28T04:16:08.477Z,13.81
2018-08-28T04:17:18.530Z,13.79
2018-08-28T04:18:28.110Z,13.73
2018-08-28T04:19:37.960Z,13.82
2018-08-28T04:20:48.074Z,13.73
2018-08-28T04:21:58.186Z,13.82
2018-08-28T04:23:07.756Z,13.71
2018-08-28T04:24:17.331Z,13.77
2018-08-28T04:25:27.445Z,13.81
2018-08-28T04:26:36.747Z,13.7
2018-08-28T04:27:46.854Z,13.78
2018-08-28T04:28:56.694Z,13.79
2018-08-28T04:30:06.552Z,13.78
2018-08-28T04:31:15.592Z,13.78
2018-08-28T04:32:25.706Z,13.78
2018-08-28T04:33:35.832Z,13.82
2018-08-28T04:34:45.682Z,13.79
2018-08-28T04:35:54.978Z,13.75
2018-08-28T04:37:04.547Z,13.77
2018-08-28T04:38:14.122Z,13.75
2018-08-28T04:39:23.694Z,13.82
2018-08-28T04:40:33.867Z,13.81
2018-08-28T04:41:44.056Z,13.84
2018-08-28T04:42:53.759Z,13.87
2018-08-28T04:44:03.873Z,13.85
2018-08-28T04:45:13.999Z,13.78
2018-08-28T04:46:23.839Z,13.96
2018-08-28T04:47:33.680Z,13.88
2018-08-28T04:48:43.605Z,13.87
2018-08-28T04:49:53.548Z,13.88
2018-08-28T04:51:03.391Z,13.87
2018-08-28T04:52:12.967Z,13.99
2018-08-28T04:53:23.074Z,13.91
2018-08-28T04:54:33.187Z,13.95
2018-08-28T04:55:43.033Z,13.95
2018-08-28T04:56:52.615Z,14.09
2018-08-28T04:58:02.464Z,14.04
2018-08-28T04:59:12.038Z,14.03
2018-08-28T05:00:21.610Z,14.1
2018-08-28T05:01:31.731Z,14.07
2018-08-28T05:02:41.571Z,14.14
2018-08-28T05:03:50.869Z,14.18
2018-08-28T05:05:00.712Z,14.15
2018-08-28T05:06:10.016Z,14.18
2018-08-28T05:07:19.866Z,14.22
2018-08-28T05:08:29.440Z,14.25
2018-08-28T05:09:39.288Z,14.29
2018-08-28T05:10:48.586Z,14.28
2018-08-28T05:11:58.162Z,14.29
2018-08-28T05:13:08.350Z,14.33
2018-08-28T05:14:18.193Z,14.42
2018-08-28T05:15:28.302Z,14.37
2018-08-28T05:16:38.420Z,14.39
2018-08-28T05:17:48.530Z,14.42
2018-08-28T05:18:58.642Z,14.51
2018-08-28T05:20:08.764Z,14.45
2018-08-28T05:21:18.877Z,14.54
2018-08-28T05:22:28.449Z,14.55
2018-08-28T05:23:38.025Z,14.54
2018-08-28T05:24:47.866Z,14.54
2018-08-28T05:25:57.432Z,14.55
2018-08-28T05:27:06.475Z,14.52
2018-08-28T05:28:16.311Z,14.61
2018-08-28T05:29:26.467Z,14.61
2018-08-28T05:30:36.083Z,14.6
2018-08-28T05:31:46.135Z,14.51
2018-08-28T05:32:55.976Z,14.69
2018-08-28T05:34:05.550Z,14.68
2018-08-28T05:35:15.393Z,14.7
2018-08-28T05:36:25.237Z,14.72
2018-08-28T05:37:35.349Z,14.77
2018-08-28T05:38:45.200Z,14.83
2018-08-28T05:39:54.510Z,14.77
2018-08-28T05:41:03.811Z,14.77
2018-08-28T05:42:13.389Z,14.89
2018-08-28T05:43:23.232Z,14.89
2018-08-28T05:44:32.827Z,14.83
2018-08-28T05:45:42.413Z,14.96
2018-08-28T05:46:51.986Z,14.94
2018-08-28T05:48:01.559Z,14.94
2018-08-28T05:49:11.184Z,15.01
2018-08-28T05:50:19.950Z,14.94
2018-08-28T05:51:29.527Z,14.98
2018-08-28T05:52:38.837Z,15.03
2018-08-28T05:53:48.678Z,14.99
2018-08-28T05:54:58.992Z,15.11
2018-08-28T05:56:09.130Z,15.1
2018-08-28T05:57:19.225Z,15.09
2018-08-28T05:58:29.337Z,15.16
2018-08-28T05:59:39.181Z,15.2
2018-08-28T06:00:48.486Z,15.2
2018-08-28T06:01:58.333Z,15.27
2018-08-28T06:03:07.784Z,15.28
2018-08-28T06:04:18.333Z,15.27
2018-08-28T06:05:28.447Z,15.25
2018-08-28T06:06:38.067Z,15.23
2018-08-28T06:07:47.915Z,15.31
2018-08-28T06:08:58.089Z,15.27
2018-08-28T06:10:08.211Z,15.28
2018-08-28T06:11:17.784Z,15.29
2018-08-28T06:12:27.627Z,15.31
2018-08-28T06:13:37.467Z,15.25
2018-08-28T06:14:46.971Z,15.27
2018-08-28T06:15:57.561Z,15.23
2018-08-28T06:17:07.128Z,15.36
2018-08-28T06:18:16.710Z,15.28
2018-08-28T06:19:26.297Z,15.28
2018-08-28T06:20:35.867Z,15.32
2018-08-28T06:21:45.715Z,15.31
2018-08-28T06:22:56.068Z,15.28
2018-08-28T06:24:05.653Z,15.32
2018-08-28T06:25:15.786Z,15.38
2018-08-28T06:26:25.993Z,15.35
2018-08-28T06:27:36.232Z,15.38
2018-08-28T06:28:45.807Z,15.39
2018-08-28T06:29:55.439Z,15.43
2018-08-28T06:31:05.552Z,15.49
2018-08-28T06:32:15.411Z,15.43
2018-08-28T06:33:24.982Z,15.47
2018-08-28T06:34:34.834Z,15.49
2018-08-28T06:35:44.139Z,15.49
2018-08-28T06:36:54.269Z,15.57
2018-08-28T06:38:04.114Z,15.49
2018-08-28T06:39:14.226Z,15.53
2018-08-28T06:40:23.799Z,15.5
2018-08-28T06:41:33.645Z,15.56
2018-08-28T06:42:43.489Z,15.65
2018-08-28T06:43:53.598Z,15.56
2018-08-28T06:45:04.042Z,15.67
2018-08-28T06:46:13.625Z,15.59
2018-08-28T06:47:23.208Z,15.67
2018-08-28T06:48:32.787Z,15.76
2018-08-28T06:49:43.271Z,15.65
2018-08-28T06:50:52.561Z,15.65
2018-08-28T06:52:02.149Z,15.68
2018-08-28T06:53:12.000Z,15.71
2018-08-28T06:54:22.171Z,15.71
2018-08-28T06:55:31.470Z,15.83
2018-08-28T06:56:41.369Z,15.82
2018-08-28T06:57:51.008Z,15.78
2018-08-28T06:59:00.577Z,15.87
2018-08-28T07:00:10.423Z,15.86
2018-08-28T07:01:19.722Z,15.89
2018-08-28T07:02:29.489Z,15.89
2018-08-28T07:03:39.413Z,15.83
2018-08-28T07:04:49.578Z,15.9
2018-08-28T07:05:59.151Z,15.93
2018-08-28T07:07:08.998Z,15.96
2018-08-28T07:08:18.293Z,16.02
2018-08-28T07:09:28.129Z,16.02
2018-08-28T07:10:37.719Z,16.12
2018-08-28T07:11:47.569Z,16.05
2018-08-28T07:12:57.144Z,16.12
2018-08-28T07:14:06.717Z,16.24
2018-08-28T07:15:16.291Z,16.24
2018-08-28T07:16:25.595Z,16.23
2018-08-28T07:17:35.460Z,16.24
2018-08-28T07:18:45.174Z,16.38
2018-08-28T07:19:55.391Z,16.46
2018-08-28T07:21:04.694Z,16.48
2018-08-28T07:22:14.267Z,16.49
2018-08-28T07:23:24.382Z,16.63
2018-08-28T07:24:33.950Z,16.56
2018-08-28T07:25:44.559Z,16.73
2018-08-28T07:26:55.338Z,16.71
2018-08-28T07:28:04.638Z,16.78
2018-08-28T07:29:14.224Z,16.79
2018-08-28T07:30:24.078Z,16.75
2018-08-28T07:31:34.323Z,16.83
2018-08-28T07:32:43.982Z,16.89
2018-08-28T07:33:53.872Z,16.91
2018-08-28T07:35:03.171Z,16.94
2018-08-28T07:36:12.755Z,17.03
2018-08-28T07:37:23.006Z,17.01
2018-08-28T07:38:32.964Z,17.03
2018-08-28T07:39:42.542Z,17.08
2018-08-28T07:40:52.651Z,17.15
2018-08-28T07:42:02.534Z,17.15
2018-08-28T07:43:12.112Z,17.15
2018-08-28T07:44:22.230Z,17.19
2018-08-28T07:45:32.363Z,17.26
2018-08-28T07:46:42.481Z,17.23
2018-08-28T07:47:52.593Z,17.3
2018-08-28T07:49:02.429Z,17.31
2018-08-28T07:50:12.273Z,17.26
2018-08-28T07:51:22.111Z,17.34
2018-08-28T07:52:31.963Z,17.46
2018-08-28T07:53:41.565Z,17.46
2018-08-28T07:54:51.454Z,17.49
2018-08-28T07:56:01.298Z,17.58
2018-08-28T07:57:10.874Z,17.59
2018-08-28T07:58:20.999Z,17.54
2018-08-28T07:59:30.850Z,17.59
2018-08-28T08:00:40.157Z,17.54
2018-08-28T08:01:49.771Z,17.63
2018-08-28T08:02:59.342Z,17.66
2018-08-28T08:04:09.463Z,17.68
2018-08-28T08:05:19.576Z,17.7
2018-08-28T08:06:29.151Z,17.64
2018-08-28T08:07:38.995Z,17.7
2018-08-28T08:08:49.175Z,17.74
2018-08-28T08:09:58.756Z,17.81
2018-08-28T08:11:08.617Z,17.87
2018-08-28T08:12:18.195Z,17.9
2018-08-28T08:13:28.317Z,17.89
2018-08-28T08:14:37.882Z,17.9
2018-08-28T08:15:47.932Z,17.89
2018-08-28T08:16:57.168Z,17.9
2018-08-28T08:18:06.783Z,17.89
2018-08-28T08:19:16.915Z,17.93
2018-08-28T08:20:26.758Z,18.03
2018-08-28T08:21:36.066Z,18.11
2018-08-28T08:22:45.380Z,18.14
2018-08-28T08:23:54.961Z,18.07
2018-08-28T08:25:04.534Z,18.21
2018-08-28T08:26:14.120Z,18.15
2018-08-28T08:27:24.235Z,18.29
2018-08-28T08:28:34.351Z,18.18
2018-08-28T08:29:43.392Z,18.27
2018-08-28T08:30:53.255Z,18.26
2018-08-28T08:32:03.427Z,18.23
2018-08-28T08:33:13.549Z,18.18
2018-08-28T08:34:23.142Z,18.3
2018-08-28T08:35:32.714Z,18.37
2018-08-28T08:36:42.295Z,18.47
2018-08-28T08:37:51.608Z,18.39
2018-08-28T08:39:01.189Z,18.39
2018-08-28T08:40:10.497Z,18.39
2018-08-28T08:41:20.343Z,18.48
2018-08-28T08:42:30.186Z,18.5
2018-08-28T08:43:39.763Z,18.51
2018-08-28T08:44:49.351Z,18.55
2018-08-28T08:45:58.930Z,18.57
2018-08-28T08:47:08.775Z,18.6
2018-08-28T08:48:18.615Z,18.73
2018-08-28T08:49:28.765Z,18.67
2018-08-28T08:50:38.616Z,18.66
2018-08-28T08:51:48.723Z,18.81
2018-08-28T08:52:58.301Z,18.8
2018-08-28T08:54:07.872Z,18.81
2018-08-28T08:55:17.500Z,18.72
2018-08-28T08:56:27.358Z,18.75
2018-08-28T08:57:36.791Z,18.62
2018-08-28T08:58:46.639Z,18.67
2018-08-28T08:59:56.758Z,18.69
2018-08-28T09:01:06.600Z,18.69
2018-08-28T09:02:16.450Z,18.75
2018-08-28T09:03:26.023Z,18.87
2018-08-28T09:04:36.149Z,18.84
2018-08-28T09:05:45.722Z,18.92
2018-08-28T09:06:55.898Z,18.84
2018-08-28T09:08:05.219Z,18.92
2018-08-28T09:09:14.521Z,19.07
2018-08-28T09:10:24.361Z,19.02
2018-08-28T09:11:34.203Z,19.02
2018-08-28T09:12:44.059Z,18.91
2018-08-28T09:13:54.179Z,18.9
2018-08-28T09:15:03.751Z,18.99
2018-08-28T09:16:12.785Z,19.04
2018-08-28T09:17:22.375Z,19.19
2018-08-28T09:18:32.236Z,19.16
2018-08-28T09:19:41.806Z,19.14
2018-08-28T09:20:51.653Z,19.32
2018-08-28T09:22:01.226Z,19.36
2018-08-28T09:23:11.082Z,19.25
2018-08-28T09:24:21.192Z,19.23
2018-08-28T09:25:30.766Z,19.39
2018-08-28T09:26:40.073Z,19.46
2018-08-28T09:27:49.917Z,19.43
2018-08-28T09:28:59.502Z,19.43
2018-08-28T09:30:08.801Z,19.55
2018-08-28T09:31:18.774Z,19.56
2018-08-28T09:32:28.714Z,19.51
2018-08-28T09:33:38.840Z,19.43
2018-08-28T09:34:48.686Z,19.39
2018-08-28T09:35:58.807Z,19.44
2018-08-28T09:37:08.114Z,19.54
2018-08-28T09:38:18.121Z,19.68
2018-08-28T09:39:27.782Z,19.71
2018-08-28T09:40:37.639Z,19.71
2018-08-28T09:41:47.273Z,19.74
2018-08-28T09:42:57.469Z,19.81
2018-08-28T09:44:07.035Z,19.84
2018-08-28T09:45:16.613Z,19.91
2018-08-28T09:46:26.473Z,20.05
2018-08-28T09:47:36.048Z,19.91
2018-08-28T09:48:45.352Z,19.84
2018-08-28T09:49:55.640Z,19.87
2018-08-28T09:51:05.817Z,19.95
2018-08-28T09:52:15.758Z,19.92
2018-08-28T09:53:25.600Z,19.84
2018-08-28T09:54:34.907Z,19.76
2018-08-28T09:55:44.209Z,19.95
2018-08-28T09:56:53.790Z,19.94
2018-08-28T09:58:03.364Z,19.88
2018-08-28T09:59:13.213Z,19.99
2018-08-28T10:00:22.522Z,20.06
2018-08-28T10:01:32.372Z,20.06
2018-08-28T10:02:42.486Z,20.11
2018-08-28T10:03:52.075Z,20.05
2018-08-28T10:05:01.108Z,20.1
2018-08-28T10:06:10.969Z,20.02
2018-08-28T10:07:20.809Z,20.05
2018-08-28T10:08:30.672Z,20.13
2018-08-28T10:09:40.793Z,20.18
2018-08-28T10:10:50.467Z,20.13
2018-08-28T10:12:00.084Z,20.03
2018-08-28T10:13:09.939Z,20.06
2018-08-28T10:14:20.059Z,20.1
2018-08-28T10:15:29.680Z,20.05
2018-08-28T10:16:39.794Z,20.08
2018-08-28T10:17:49.377Z,20.14
2018-08-28T10:18:59.221Z,20.06
2018-08-28T10:20:08.801Z,20.08
2018-08-28T10:21:18.708Z,20.17
2018-08-28T10:22:28.287Z,20.2
2018-08-28T10:23:38.181Z,20.17
2018-08-28T10:24:48.295Z,20.05
2018-08-28T10:25:57.922Z,20.16
2018-08-28T10:27:07.495Z,20.16
2018-08-28T10:28:17.626Z,20.17
2018-08-28T10:29:26.981Z,20.17
2018-08-28T10:30:36.396Z,20.14
2018-08-28T10:31:45.866Z,20.18
2018-08-28T10:32:55.721Z,20.18
2018-08-28T10:34:05.308Z,20.32
2018-08-28T10:35:14.613Z,20.33
2018-08-28T10:36:24.235Z,20.29
2018-08-28T10:37:33.266Z,20.33
2018-08-28T10:38:43.104Z,20.33
2018-08-28T10:39:52.950Z,20.29
2018-08-28T10:41:02.525Z,20.36
2018-08-28T10:42:11.836Z,20.29
2018-08-28T10:43:21.689Z,20.43
2018-08-28T10:44:31.804Z,20.39
2018-08-28T10:45:41.383Z,20.33
2018-08-28T10:46:51.667Z,20.51
2018-08-28T10:48:01.292Z,20.38
2018-08-28T10:49:10.329Z,20.48
2018-08-28T10:50:19.636Z,20.41
2018-08-28T10:51:29.282Z,20.35
2018-08-28T10:52:38.862Z,20.32
2018-08-28T10:53:48.440Z,20.33
2018-08-28T10:54:58.316Z,20.36
2018-08-28T10:56:08.170Z,20.35
2018-08-28T10:57:17.766Z,20.26
2018-08-28T10:58:27.629Z,20.33
2018-08-28T10:59:36.952Z,20.32
2018-08-28T11:00:46.594Z,20.23
2018-08-28T11:01:56.173Z,20.23
2018-08-28T11:03:05.747Z,20.2
2018-08-28T11:04:15.325Z,20.23
2018-08-28T11:05:24.936Z,20.16
2018-08-28T11:06:34.514Z,20.23
2018-08-28T11:07:44.386Z,20.2
2018-08-28T11:08:54.846Z,20.2
2018-08-28T11:10:04.693Z,20.21
2018-08-28T11:11:14.540Z,20.21
2018-08-28T11:12:24.391Z,20.21
2018-08-28T11:13:33.965Z,20.17
2018-08-28T11:14:43.272Z,20.23
2018-08-28T11:15:53.114Z,20.16
2018-08-28T11:17:02.498Z,20.21
2018-08-28T11:18:12.348Z,20.21
2018-08-28T11:19:21.932Z,20.21
2018-08-28T11:20:31.776Z,20.14
2018-08-28T11:21:41.678Z,20.18
2018-08-28T11:22:51.630Z,20.17
2018-08-28T11:24:01.575Z,20.29
2018-08-28T11:25:11.429Z,20.2
2018-08-28T11:26:21.564Z,20.31
2018-08-28T11:27:31.687Z,20.35
2018-08-28T11:28:41.249Z,20.28
2018-08-28T11:29:50.828Z,20.26
2018-08-28T11:31:00.685Z,20.16
2018-08-28T11:32:10.260Z,20.23
2018-08-28T11:33:20.108Z,20.26
2018-08-28T11:34:29.958Z,20.23
2018-08-28T11:35:40.271Z,20.21
2018-08-28T11:36:49.988Z,20.26
2018-08-28T11:37:59.829Z,20.31
2018-08-28T11:39:09.454Z,20.31
2018-08-28T11:40:18.495Z,20.29
2018-08-28T11:41:27.846Z,20.32
2018-08-28T11:42:37.695Z,20.31
2018-08-28T11:43:47.554Z,20.29
2018-08-28T11:44:57.666Z,20.33
2018-08-28T11:46:07.245Z,20.32
2018-08-28T11:47:17.285Z,20.33
2018-08-28T11:48:27.231Z,20.36
2018-08-28T11:49:37.368Z,20.36
2018-08-28T11:50:47.218Z,20.36
2018-08-28T11:51:56.528Z,20.31
2018-08-28T11:53:06.440Z,20.31
2018-08-28T11:54:16.191Z,20.42
2018-08-28T11:55:25.494Z,20.31
2018-08-28T11:56:34.799Z,20.32
2018-08-28T11:57:44.389Z,20.31
2018-08-28T11:58:54.514Z,20.23
2018-08-28T12:00:04.362Z,20.18
2018-08-28T12:01:14.479Z,20.26
2018-08-28T12:02:24.053Z,20.24
2018-08-28T12:03:34.171Z,20.2
2018-08-28T12:04:44.017Z,20.29
2018-08-28T12:05:53.669Z,20.21
2018-08-28T12:07:03.872Z,20.24
2018-08-28T12:08:13.886Z,20.26
2018-08-28T12:09:23.194Z,20.32
2018-08-28T12:10:32.504Z,20.35
2018-08-28T12:11:42.364Z,20.31
2018-08-28T12:12:51.943Z,20.33
2018-08-28T12:14:00.987Z,20.29
2018-08-28T12:15:10.837Z,20.32
2018-08-28T12:16:20.682Z,20.35
2018-08-28T12:17:30.321Z,20.39
2018-08-28T12:18:40.432Z,20.38
2018-08-28T12:19:50.012Z,20.36
2018-08-28T12:20:59.385Z,20.5
2018-08-28T12:22:08.796Z,20.48
2018-08-28T12:23:18.883Z,20.55
2018-08-28T12:24:28.193Z,20.51
2018-08-28T12:25:37.508Z,20.5
2018-08-28T12:26:47.635Z,20.5
2018-08-28T12:27:57.456Z,20.32
2018-08-28T12:29:07.037Z,20.52
2018-08-28T12:30:16.615Z,20.58
2018-08-28T12:31:26.735Z,20.58
2018-08-28T12:32:36.584Z,20.73
2018-08-28T12:33:46.439Z,20.74
2018-08-28T12:34:56.286Z,20.82
2018-08-28T12:36:05.864Z,20.92
2018-08-28T12:37:16.006Z,20.88
2018-08-28T12:38:25.333Z,20.94
2018-08-28T12:39:34.911Z,20.91
2018-08-28T12:40:44.495Z,21.06
2018-08-28T12:41:54.347Z,21.06
2018-08-28T12:43:03.933Z,21.13
2018-08-28T12:44:14.339Z,21.03
2018-08-28T12:45:24.192Z,21.01
2018-08-28T12:46:34.040Z,21.09
2018-08-28T12:47:43.644Z,21.19
2018-08-28T12:48:53.528Z,21.34
2018-08-28T12:50:03.399Z,21.43
2018-08-28T12:51:13.296Z,21.52
2018-08-28T12:52:23.254Z,21.65
2018-08-28T12:53:33.114Z,21.77
2018-08-28T12:54:43.347Z,21.77
2018-08-28T12:55:52.578Z,21.94
2018-08-28T12:57:02.722Z,21.94
2018-08-28T12:58:12.848Z,21.96
2018-08-28T12:59:22.447Z,21.77
2018-08-28T13:00:31.934Z,21.79
2018-08-28T13:01:42.277Z,21.86
2018-08-28T13:02:52.161Z,21.91
2018-08-28T13:04:01.769Z,21.86
2018-08-28T13:05:11.077Z,21.79
2018-08-28T13:06:20.926Z,21.79
2018-08-28T13:07:30.921Z,21.65
2018-08-28T13:08:41.418Z,21.56
2018-08-28T13:09:51.281Z,21.59
2018-08-28T13:11:01.415Z,21.56
2018-08-28T13:12:11.266Z,21.62
2018-08-28T13:13:21.385Z,21.68
2018-08-28T13:14:31.383Z,21.61
2018-08-28T13:15:41.725Z,21.69
2018-08-28T13:16:51.576Z,21.54
2018-08-28T13:18:00.887Z,21.64
2018-08-28T13:19:10.789Z,21.61
2018-08-28T13:20:20.716Z,21.61
2018-08-28T13:21:30.571Z,21.49
2018-08-28T13:22:40.424Z,21.49
2018-08-28T13:23:50.273Z,21.42
2018-08-28T13:25:00.395Z,21.46
2018-08-28T13:26:10.110Z,21.49
2018-08-28T13:27:19.362Z,21.49
2018-08-28T13:28:28.669Z,21.5
2018-08-28T13:29:38.518Z,21.62
2018-08-28T13:30:48.101Z,21.61
2018-08-28T13:31:58.224Z,21.58
2018-08-28T13:33:08.075Z,21.59
2018-08-28T13:34:17.388Z,21.54
2018-08-28T13:35:27.240Z,21.62
2018-08-28T13:36:37.123Z,21.62
2018-08-28T13:37:46.433Z,21.61
2018-08-28T13:38:56.017Z,21.64
2018-08-28T13:40:06.234Z,21.74
2018-08-28T13:41:16.181Z,21.79
2018-08-28T13:42:25.758Z,21.82
2018-08-28T13:43:35.623Z,21.8
2018-08-28T13:44:45.200Z,21.84
2018-08-28T13:45:55.047Z,21.9
2018-08-28T13:47:05.223Z,22
2018-08-28T13:48:15.731Z,21.92
2018-08-28T13:49:25.575Z,22.1
2018-08-28T13:50:35.149Z,22.1
2018-08-28T13:51:45.300Z,22.24
2018-08-28T13:52:54.886Z,22.31
2018-08-28T13:54:04.878Z,22.24
2018-08-28T13:55:14.894Z,22.4
2018-08-28T13:56:24.755Z,22.46
2018-08-28T13:57:34.337Z,22.64
2018-08-28T13:58:44.223Z,22.64
2018-08-28T13:59:54.610Z,22.77
2018-08-28T14:01:05.043Z,22.82
2018-08-28T14:02:14.637Z,22.82
2018-08-28T14:03:24.501Z,23.15
2018-08-28T14:04:34.095Z,23.25
2018-08-28T14:05:43.954Z,23.35
2018-08-28T14:06:53.538Z,23.55
2018-08-28T14:08:02.849Z,23.51
2018-08-28T14:09:12.974Z,23.65
2018-08-28T14:10:22.844Z,23.48
2018-08-28T14:11:32.183Z,23.5
2018-08-28T14:12:41.500Z,23.55
2018-08-28T14:13:51.657Z,23.78
2018-08-28T14:15:02.456Z,24.03
2018-08-28T14:16:12.413Z,24.18
2018-08-28T14:17:22.571Z,24.12
2018-08-28T14:18:32.432Z,24.13
2018-08-28T14:19:41.757Z,24.32
2018-08-28T14:20:51.348Z,24.27
2018-08-28T14:22:00.940Z,24.46
2018-08-28T14:23:10.587Z,24.64
2018-08-28T14:24:20.752Z,24.77
2018-08-28T14:25:30.623Z,24.73
2018-08-28T14:26:40.212Z,24.85
2018-08-28T14:27:50.101Z,24.95
2018-08-28T14:28:59.926Z,25
2018-08-28T14:30:10.148Z,25.03
2018-08-28T14:31:20.307Z,25.18
2018-08-28T14:32:30.186Z,25.33
2018-08-28T14:33:39.809Z,25.17
2018-08-28T14:34:49.445Z,25.1
2018-08-28T14:35:59.600Z,25.14
2018-08-28T14:37:09.759Z,25.05
2018-08-28T14:38:19.655Z,24.99
2018-08-28T14:39:29.567Z,24.88
2018-08-28T14:40:40.215Z,24.83
2018-08-28T14:41:50.372Z,24.78
2018-08-28T14:42:59.983Z,24.76
2018-08-28T14:44:09.869Z,24.67
2018-08-28T14:45:19.734Z,24.5
2018-08-28T14:46:29.616Z,24.35
2018-08-28T14:47:39.488Z,24.18
2018-08-28T14:48:49.355Z,24.2
2018-08-28T14:49:59.540Z,23.93
2018-08-28T14:51:09.769Z,23.95
2018-08-28T14:52:19.658Z,23.87
2018-08-28T14:53:29.544Z,23.84
2018-08-28T14:54:38.955Z,23.9
2018-08-28T14:55:49.239Z,23.75
2018-08-28T14:56:59.143Z,23.76
2018-08-28T14:58:09.343Z,23.61
2018-08-28T14:59:18.147Z,23.57
2018-08-28T15:00:28.013Z,23.53